Time;durP1;ratioP1;P1;durP2;ratioP2;P2;SDS_P1;SDS_P2;PMS_P1;PMS_P2;Temp;Humidity;BMP_temperature;BMP_pressure;BME280_temperature;BME280_humidity;BME280_pressure;Samples;Min_cycle;Max_cycle;Signal;HPM_P1;HPM_P2
2022/10/10 00:02:35;;;;;;;2.85;1.83;;;;;;;10.86;36.77;101167.63;4979739;28;20135;-84
2022/10/10 00:05:12;;;;;;;3.72;2.20;;;;;;;10.84;37.12;101165.00;5045569;28;20040;-83
2022/10/10 00:07:45;;;;;;;3.58;2.08;;;;;;;10.85;37.08;101171.34;5058793;28;20048;-84
2022/10/10 00:10:19;;;;;;;5.25;2.22;;;;;;;10.85;37.25;101158.53;5015709;28;20121;-83
2022/10/10 00:12:53;;;;;;;4.00;2.10;;;;;;;10.83;37.19;101166.00;5034759;28;20075;-84
2022/10/10 00:20:28;;;;;;;3.17;2.00;;;;;;;10.73;37.44;101165.03;5054427;28;20044;-82
2022/10/10 00:22:56;;;;;;;3.92;2.00;;;;;;;10.73;37.17;101162.28;5049616;28;20037;-83
2022/10/10 00:25:24;;;;;;;3.70;2.00;;;;;;;10.73;37.36;101169.66;5042338;28;20106;-83
2022/10/10 00:27:52;;;;;;;3.35;2.00;;;;;;;10.73;37.11;101175.97;5053119;28;20036;-84
2022/10/10 00:30:21;;;;;;;3.78;2.45;;;;;;;10.71;37.49;101171.66;5054985;28;20052;-84
2022/10/10 00:32:49;;;;;;;4.55;2.30;;;;;;;10.70;37.49;101169.91;5042009;28;20551;-82
2022/10/10 00:35:17;;;;;;;3.58;2.03;;;;;;;10.69;37.38;101169.03;5044298;28;20040;-85
2022/10/10 00:37:48;;;;;;;3.17;2.00;;;;;;;10.70;37.71;101179.00;5039701;28;20040;-84
2022/10/10 00:40:16;;;;;;;3.47;2.20;;;;;;;10.66;37.86;101169.28;5047725;28;20045;-84
2022/10/10 00:42:44;;;;;;;3.63;1.92;;;;;;;10.64;37.65;101163.09;5060969;28;20090;-83
2022/10/10 00:45:27;;;;;;;3.20;2.20;;;;;;;10.67;38.27;101175.63;5036329;28;20488;-83
2022/10/10 00:47:58;;;;;;;3.78;2.20;;;;;;;10.60;38.04;101167.06;5057392;28;20047;-83
2022/10/10 00:53:17;;;;;;;4.13;1.90;;;;;;;10.59;38.03;101168.03;5045857;28;20041;-83
2022/10/10 00:55:46;;;;;;;3.83;1.95;;;;;;;10.57;38.01;101164.56;5048605;28;20051;-83
2022/10/10 00:58:17;;;;;;;3.40;2.00;;;;;;;10.58;37.73;101164.44;5050435;28;20040;-84
2022/10/10 01:00:45;;;;;;;4.10;2.40;;;;;;;10.57;37.79;101153.63;5039995;28;20055;-83
2022/10/10 01:03:13;;;;;;;3.30;1.98;;;;;;;10.55;38.16;101156.50;5041241;28;20086;-85
2022/10/10 01:05:43;;;;;;;3.78;2.00;;;;;;;10.54;37.70;101146.56;5045322;28;20041;-83
2022/10/10 01:08:13;;;;;;;3.30;2.10;;;;;;;10.54;38.12;101152.03;5046307;28;20037;-83
2022/10/10 01:10:46;;;;;;;2.65;1.98;;;;;;;10.51;38.23;101138.56;5044546;28;20540;-84
2022/10/10 01:13:28;;;;;;;3.97;2.10;;;;;;;10.53;38.23;101141.16;5048280;28;20044;-84
2022/10/10 01:16:01;;;;;;;3.80;1.90;;;;;;;10.50;38.15;101147.75;5044681;28;20057;-84
2022/10/10 01:18:33;;;;;;;;;;;;;;;10.22;38.66;101149.16;5043498;28;20060;-84
2022/10/10 01:21:15;;;;;;;4.88;2.10;;;;;;;10.44;38.39;101139.19;5045285;28;19932;-85
2022/10/10 01:24:37;;;;;;;3.20;1.90;;;;;;;10.39;38.55;101144.19;5054811;28;20037;-84
2022/10/10 01:27:18;;;;;;;3.20;2.05;;;;;;;10.42;38.49;101138.44;5034103;28;20136;-83
2022/10/10 01:29:51;;;;;;;3.17;1.95;;;;;;;10.41;38.20;101134.81;5045041;28;20045;-84
2022/10/10 01:32:26;;;;;;;3.40;2.20;;;;;;;10.41;38.40;101134.81;5055632;28;20143;-83
2022/10/10 01:35:16;;;;;;;2.55;1.80;;;;;;;10.39;38.66;101125.91;5065988;28;20041;-84
2022/10/10 01:37:52;;;;;;;3.15;1.80;;;;;;;10.37;38.86;101127.88;5048731;28;20442;-84
2022/10/10 01:40:27;;;;;;;3.85;1.98;;;;;;;10.35;38.35;101126.25;5043984;28;20045;-84
2022/10/10 01:42:57;;;;;;;4.35;2.22;;;;;;;10.33;38.51;101120.03;5054532;28;20152;-84
2022/10/10 01:45:30;;;;;;;3.38;1.90;;;;;;;10.31;38.75;101125.66;5053233;28;20424;-83
2022/10/10 01:48:01;;;;;;;3.00;1.98;;;;;;;10.29;38.49;101124.91;5041860;28;20045;-83
2022/10/10 01:50:33;;;;;;;4.18;1.90;;;;;;;10.28;38.25;101117.69;5034952;28;20496;-83
2022/10/10 01:53:10;;;;;;;3.55;2.00;;;;;;;10.29;39.29;101113.97;5034828;28;20052;-83
2022/10/10 01:55:56;;;;;;;3.30;2.10;;;;;;;10.27;38.97;101121.41;5043313;28;20044;-83
2022/10/10 01:58:49;;;;;;;3.60;1.80;;;;;;;10.22;39.32;101116.34;5036564;28;20094;-83
2022/10/10 02:01:27;;;;;;;3.70;1.85;;;;;;;10.21;39.28;101114.59;5018118;28;20045;-83
2022/10/10 02:04:05;;;;;;;2.58;1.85;;;;;;;10.21;38.88;101111.88;5052658;22;20091;-80
2022/10/10 02:06:40;;;;;;;4.18;2.03;;;;;;;10.21;38.95;101105.53;5048482;28;20057;-81
2022/10/10 02:09:14;;;;;;;3.72;1.90;;;;;;;10.18;39.05;101108.50;5066842;28;20037;-82
2022/10/10 02:11:42;;;;;;;3.08;1.80;;;;;;;10.16;38.39;101103.16;5066871;28;20048;-83
2022/10/10 02:14:14;;;;;;;4.45;2.20;;;;;;;10.14;38.98;101099.69;5062421;28;20417;-84
2022/10/10 02:16:46;;;;;;;3.63;2.10;;;;;;;10.11;38.92;101108.13;5061212;28;20131;-84
2022/10/10 02:19:19;;;;;;;3.20;2.00;;;;;;;10.09;39.27;101096.44;5067368;28;20045;-83
2022/10/10 02:21:49;;;;;;;3.22;1.80;;;;;;;10.06;38.67;101099.47;5057243;28;20120;-83
2022/10/10 02:24:19;;;;;;;3.22;1.90;;;;;;;10.07;38.74;101098.44;5069195;28;20460;-84
2022/10/10 02:26:53;;;;;;;2.70;1.65;;;;;;;10.05;39.21;101099.56;5056026;28;20055;-83
2022/10/10 02:29:26;;;;;;;3.47;2.00;;;;;;;10.05;39.23;101096.84;5061450;28;20461;-83
2022/10/10 02:32:02;;;;;;;3.90;2.17;;;;;;;10.02;39.27;101091.59;5055170;28;20045;-82
2022/10/10 02:34:35;;;;;;;3.45;1.90;;;;;;;10.00;39.12;101088.13;5062754;28;20116;-82
2022/10/10 02:37:06;;;;;;;3.28;1.67;;;;;;;9.98;39.14;101079.19;5075884;28;20082;-83
2022/10/10 02:39:38;;;;;;;3.83;2.00;;;;;;;9.96;39.37;101087.53;5076942;28;20134;-83
2022/10/10 02:42:09;;;;;;;4.40;2.10;;;;;;;9.93;39.22;101084.16;5053433;28;20048;-84
2022/10/10 02:44:38;;;;;;;2.85;1.90;;;;;;;9.93;39.14;101078.69;5065392;28;20064;-84
2022/10/10 02:47:08;;;;;;;4.43;2.30;;;;;;;9.89;39.39;101083.56;5063900;28;20768;-80
2022/10/10 02:49:36;;;;;;;4.10;2.10;;;;;;;9.88;39.52;101073.59;5071576;28;20067;-84
2022/10/10 02:52:04;;;;;;;3.58;2.08;;;;;;;9.83;39.09;101076.69;5059477;28;20041;-83
2022/10/10 02:54:34;;;;;;;4.18;2.15;;;;;;;9.81;39.44;101070.50;5065021;28;20119;-84
2022/10/10 02:57:02;;;;;;;4.28;2.10;;;;;;;9.81;39.57;101075.09;5058739;28;20044;-84
2022/10/10 02:59:30;;;;;;;3.17;1.90;;;;;;;9.78;39.70;101078.06;5079131;28;20083;-84
2022/10/10 03:01:57;;;;;;;3.55;2.05;;;;;;;9.78;39.69;101069.88;5057764;28;20075;-84
2022/10/10 03:04:27;;;;;;;4.10;2.10;;;;;;;9.78;39.76;101070.75;5076778;28;20044;-83
2022/10/10 03:06:55;;;;;;;3.50;2.05;;;;;;;9.74;39.57;101063.78;5076614;28;20063;-81
2022/10/10 03:09:26;;;;;;;3.05;1.92;;;;;;;9.75;39.51;101061.91;5072886;28;20518;-84
2022/10/10 03:11:54;;;;;;;3.78;2.20;;;;;;;9.73;39.67;101062.06;5058385;28;20044;-84
2022/10/10 03:14:22;;;;;;;3.83;2.05;;;;;;;9.72;39.95;101065.78;5055945;28;20070;-85
2022/10/10 03:16:50;;;;;;;4.57;2.28;;;;;;;9.74;39.96;101060.19;5060625;28;20037;-82
2022/10/10 03:19:17;;;;;;;3.85;1.95;;;;;;;9.74;40.07;101061.03;5050197;28;20044;-84
2022/10/10 03:21:49;;;;;;;3.55;2.13;;;;;;;9.75;39.84;101059.19;5071786;28;20090;-84
2022/10/10 03:24:17;;;;;;;3.95;2.10;;;;;;;9.74;39.94;101057.47;5065400;28;20037;-83
2022/10/10 03:26:44;;;;;;;4.32;2.10;;;;;;;9.71;39.81;101055.84;5050149;28;20518;-84
2022/10/10 03:29:12;;;;;;;4.03;2.40;;;;;;;9.71;40.15;101050.38;5057707;28;20048;-82
2022/10/10 03:31:40;;;;;;;3.53;1.90;;;;;;;9.71;40.17;101061.31;5060303;28;20063;-83
2022/10/10 03:34:08;;;;;;;3.67;2.15;;;;;;;9.69;40.05;101052.34;5056321;28;20102;-83
2022/10/10 03:36:36;;;;;;;4.53;2.10;;;;;;;9.69;39.97;101059.69;5061614;28;20358;-84
2022/10/10 03:39:06;;;;;;;4.32;2.20;;;;;;;9.69;40.21;101054.22;5080992;28;20419;-85
2022/10/10 03:41:36;;;;;;;3.50;2.28;;;;;;;9.65;40.44;101058.22;5078534;28;20095;-80
2022/10/10 03:44:04;;;;;;;4.07;2.10;;;;;;;9.64;39.99;101062.78;5060146;28;20595;-84
2022/10/10 03:46:32;;;;;;;4.10;2.40;;;;;;;9.63;40.31;101054.72;5058035;28;20090;-84
2022/10/10 03:48:59;;;;;;;4.05;2.47;;;;;;;9.60;40.13;101061.28;5070820;28;20052;-84
2022/10/10 03:51:30;;;;;;;3.65;2.28;;;;;;;9.58;40.25;101060.53;5055177;28;20052;-84
2022/10/10 03:53:58;;;;;;;3.50;2.25;;;;;;;9.58;40.39;101056.94;5076413;28;20094;-83
2022/10/10 03:56:27;;;;;;;4.05;2.10;;;;;;;9.58;40.30;101055.06;5056769;28;20071;-84
2022/10/10 03:58:59;;;;;;;3.42;2.20;;;;;;;9.56;40.24;101051.63;5061691;28;20097;-82
2022/10/10 04:01:27;;;;;;;4.43;2.40;;;;;;;9.54;40.67;101055.47;5058180;28;20040;-84
2022/10/10 04:03:55;;;;;;;3.92;2.22;;;;;;;9.53;40.74;101048.25;5073387;28;20341;-84
2022/10/10 04:06:23;;;;;;;3.95;2.33;;;;;;;9.52;40.74;101041.03;5076764;28;20101;-83
2022/10/10 04:08:51;;;;;;;4.80;2.20;;;;;;;9.52;40.71;101043.78;5060450;28;20147;-81
2022/10/10 04:11:19;;;;;;;3.75;2.13;;;;;;;9.51;40.47;101042.91;5071317;28;20072;-84
2022/10/10 04:13:48;;;;;;;6.20;3.00;;;;;;;9.52;40.81;101041.91;5053494;28;20052;-83
2022/10/10 04:16:16;;;;;;;4.03;2.28;;;;;;;9.50;41.15;101040.28;5054794;28;20040;-81
2022/10/10 04:18:44;;;;;;;3.45;2.40;;;;;;;9.49;40.94;101046.78;5069544;28;20596;-83
2022/10/10 04:21:12;;;;;;;3.70;2.20;;;;;;;9.48;41.14;101042.28;5070763;28;20524;-82
2022/10/10 04:23:41;;;;;;;4.22;2.30;;;;;;;9.48;41.23;101043.16;5058331;28;20407;-81
2022/10/10 04:26:09;;;;;;;4.78;2.60;;;;;;;9.47;41.15;101041.41;5049671;28;20155;-82
2022/10/10 04:28:37;;;;;;;4.72;2.10;;;;;;;9.46;41.04;101045.16;5047747;28;20169;-83
2022/10/10 04:31:06;;;;;;;3.50;2.25;;;;;;;9.49;41.27;101047.63;5053370;28;20400;-82
2022/10/10 04:33:34;;;;;;;5.35;2.70;;;;;;;9.48;41.16;101034.97;5048021;28;20044;-82
2022/10/10 04:36:02;;;;;;;3.22;2.03;;;;;;;9.49;41.37;101046.78;5049774;28;20046;-83
2022/10/10 04:38:32;;;;;;;3.63;2.20;;;;;;;9.49;41.41;101041.31;5054369;28;20281;-82
2022/10/10 04:41:00;;;;;;;3.65;2.30;;;;;;;9.50;41.08;101043.00;5054603;28;20090;-82
2022/10/10 04:43:28;;;;;;;4.30;2.42;;;;;;;9.50;41.48;101043.00;5068157;28;20067;-82
2022/10/10 04:45:57;;;;;;;4.00;2.10;;;;;;;9.50;41.68;101043.88;5054277;28;20598;-83
2022/10/10 04:48:29;;;;;;;4.60;2.47;;;;;;;9.53;41.61;101045.50;5065237;28;20036;-81
2022/10/10 04:50:59;;;;;;;4.60;2.40;;;;;;;9.51;41.51;101034.69;5084246;28;20045;-81
2022/10/10 04:53:27;;;;;;;4.30;2.47;;;;;;;9.51;41.50;101034.69;5077933;28;20044;-82
2022/10/10 04:55:55;;;;;;;4.03;2.47;;;;;;;9.54;41.60;101037.19;5056230;28;20526;-83
2022/10/10 04:58:23;;;;;;;3.75;2.42;;;;;;;9.55;41.79;101040.81;5042370;28;20052;-83
2022/10/10 05:00:52;;;;;;;4.25;2.47;;;;;;;9.53;41.39;101035.47;5061228;28;20353;-83
2022/10/10 05:03:21;;;;;;;3.47;2.28;;;;;;;9.58;41.77;101046.00;5056675;28;20053;-82
2022/10/10 05:05:50;;;;;;;5.68;2.40;;;;;;;9.58;41.81;101048.72;5053477;28;20055;-82
2022/10/10 05:08:18;;;;;;;3.50;2.30;;;;;;;9.59;41.52;101047.75;5054093;28;20041;-82
2022/10/10 05:10:47;;;;;;;3.83;2.30;;;;;;;9.59;41.53;101047.75;5053887;28;20044;-82
2022/10/10 05:13:15;;;;;;;4.57;2.35;;;;;;;9.62;42.06;101042.03;5046856;28;20040;-83
2022/10/10 05:15:43;;;;;;;4.25;2.40;;;;;;;9.64;41.81;101040.94;5051759;28;20033;-82
2022/10/10 05:18:11;;;;;;;3.75;2.50;;;;;;;9.64;42.04;101035.47;5061213;28;20047;-82
2022/10/10 05:20:39;;;;;;;4.28;2.65;;;;;;;9.64;41.98;101035.47;5046609;28;20095;-83
2022/10/10 05:23:08;;;;;;;4.57;2.75;;;;;;;9.68;42.00;101042.41;5059370;28;20066;-82
2022/10/10 05:25:36;;;;;;;5.47;2.50;;;;;;;9.69;41.95;101044.16;5053369;28;20059;-83
2022/10/10 05:28:04;;;;;;;4.30;2.53;;;;;;;9.71;41.87;101044.03;5064805;28;20063;-83
2022/10/10 05:30:32;;;;;;;3.95;2.60;;;;;;;9.73;41.79;101045.66;5048579;28;20155;-83
2022/10/10 05:33:00;;;;;;;4.95;2.53;;;;;;;9.75;41.78;101040.91;5055189;28;20108;-83
2022/10/10 05:35:28;;;;;;;5.97;3.13;;;;;;;9.76;41.92;101034.47;5065753;28;20044;-82
2022/10/10 05:37:55;;;;;;;4.63;3.00;;;;;;;9.77;42.02;101036.19;5069183;28;20088;-82
2022/10/10 05:40:25;;;;;;;5.15;2.80;;;;;;;9.79;42.41;101036.09;5026502;28;20108;-83
2022/10/10 05:42:54;;;;;;;4.70;2.97;;;;;;;9.82;42.29;101044.88;5059181;28;20048;-82
2022/10/10 05:45:22;;;;;;;4.88;2.70;;;;;;;9.82;42.36;101044.03;5052893;28;20063;-82
2022/10/10 05:47:50;;;;;;;5.65;2.80;;;;;;;9.82;42.07;101042.16;5054649;28;20041;-82
2022/10/10 05:50:29;;;;;;;4.57;2.70;;;;;;;9.86;42.77;101037.31;5057712;28;20082;-82
2022/10/10 05:52:57;;;;;;;4.63;2.78;;;;;;;9.85;42.36;101047.38;5052836;28;20474;-81
2022/10/10 05:55:26;;;;;;;4.35;2.80;;;;;;;9.89;42.12;101041.66;5059609;28;20053;-82
2022/10/10 05:57:54;;;;;;;3.60;2.38;;;;;;;9.89;42.26;101045.28;5074958;28;20037;-82
2022/10/10 06:00:22;;;;;;;4.90;2.60;;;;;;;9.90;42.07;101043.41;5049108;28;20044;-82
2022/10/10 06:02:51;;;;;;;4.82;2.85;;;;;;;9.87;42.38;101041.78;5069550;28;20032;-82
2022/10/10 06:05:20;;;;;;;5.25;2.90;;;;;;;9.92;42.26;101045.00;5061306;28;20044;-83
2022/10/10 06:07:48;;;;;;;4.38;2.85;;;;;;;9.91;42.31;101051.47;5058527;28;20506;-81
2022/10/10 06:10:39;;;;;;;4.72;3.00;;;;;;;9.92;42.64;101045.00;5072693;28;20059;-83
2022/10/10 06:13:07;;;;;;;5.90;2.95;;;;;;;9.92;42.41;101049.59;5073716;28;20058;-81
2022/10/10 06:15:35;;;;;;;4.97;2.88;;;;;;;9.94;42.42;101045.75;5059455;28;20041;-82
2022/10/10 06:18:03;;;;;;;5.72;3.10;;;;;;;9.94;42.26;101047.63;5070562;28;20041;-80
2022/10/10 06:20:30;;;;;;;4.45;2.80;;;;;;;9.96;42.68;101045.63;5055654;28;20399;-81
2022/10/10 06:22:58;;;;;;;4.22;2.70;;;;;;;9.95;42.70;101054.84;5049696;28;20521;-81
2022/10/10 06:25:26;;;;;;;3.80;2.63;;;;;;;9.95;42.62;101050.22;5033460;28;20057;-81
2022/10/10 06:28:11;;;;;;;4.40;2.88;;;;;;;9.99;43.27;101056.34;5050058;28;20072;-81
2022/10/10 06:30:43;;;;;;;4.40;2.90;;;;;;;10.01;43.78;101048.84;5042283;28;20041;-82
2022/10/10 06:33:12;;;;;;;5.28;2.75;;;;;;;10.05;43.51;101058.56;5046172;28;20044;-81
2022/10/10 06:35:44;;;;;;;4.15;2.83;;;;;;;10.17;44.30;101058.41;5054978;28;20465;-83
2022/10/10 06:38:13;;;;;;;5.45;2.90;;;;;;;10.28;44.48;101059.38;5075766;28;20055;-81
2022/10/10 06:40:46;;;;;;;4.40;3.28;;;;;;;10.49;44.67;101060.31;5063255;28;20055;-82
2022/10/10 06:43:17;;;;;;;5.00;2.90;;;;;;;10.68;44.79;101068.75;5070080;28;20086;-81
2022/10/10 06:45:47;;;;;;;4.80;2.95;;;;;;;10.96;45.05;101070.00;5058441;28;20052;-82
2022/10/10 06:48:15;;;;;;;4.80;3.13;;;;;;;11.23;44.77;101070.34;5048571;28;20487;-83
2022/10/10 06:50:43;;;;;;;4.60;3.20;;;;;;;11.55;44.77;101073.03;5046967;28;20037;-84
2022/10/10 06:53:11;;;;;;;5.45;2.90;;;;;;;11.88;44.22;101076.53;5068425;28;20075;-84
2022/10/10 06:55:46;;;;;;;5.55;3.20;;;;;;;12.25;43.02;101079.53;5050597;28;20095;-84
2022/10/10 06:58:15;;;;;;;5.45;3.13;;;;;;;12.57;43.36;101079.31;5055475;28;20059;-83
2022/10/10 07:00:49;;;;;;;4.63;2.63;;;;;;;12.93;42.31;101072.31;5048386;28;20067;-83
2022/10/10 07:03:17;;;;;;;;;;;;;;;12.88;42.88;101069.97;5056589;28;20064;-84
2022/10/10 07:05:45;;;;;;;4.43;2.80;;;;;;;13.47;42.85;101060.66;5041066;28;19924;-81
2022/10/10 07:08:13;;;;;;;6.45;3.00;;;;;;;13.80;42.08;101073.06;5055244;28;20081;-83
2022/10/10 07:10:41;;;;;;;4.72;2.50;;;;;;;14.10;41.29;101075.56;5052788;28;20065;-82
2022/10/10 07:13:09;;;;;;;6.00;3.05;;;;;;;14.35;40.50;101077.56;5073082;28;20059;-82
2022/10/10 07:15:39;;;;;;;4.97;2.80;;;;;;;14.65;40.32;101070.91;5058332;28;20052;-83
2022/10/10 07:18:07;;;;;;;4.22;2.65;;;;;;;14.85;39.46;101071.59;5072756;28;20123;-83
2022/10/10 07:20:35;;;;;;;4.65;2.92;;;;;;;15.06;39.32;101080.44;5073180;28;20457;-83
2022/10/10 07:23:04;;;;;;;3.75;2.55;;;;;;;15.24;39.27;101077.66;5073106;28;20040;-84
2022/10/10 07:25:34;;;;;;;5.95;2.70;;;;;;;15.39;38.79;101080.75;5052555;28;20054;-83
2022/10/10 07:28:02;;;;;;;4.28;2.47;;;;;;;15.52;38.39;101086.69;5058058;28;20098;-83
2022/10/10 07:30:30;;;;;;;4.80;2.78;;;;;;;15.64;37.64;101084.56;5027464;28;20086;-82
2022/10/10 07:32:59;;;;;;;4.90;2.55;;;;;;;15.76;37.84;101099.78;5051214;28;20068;-83
2022/10/10 07:35:27;;;;;;;5.85;2.95;;;;;;;15.80;37.34;101085.53;5055287;28;20044;-83
2022/10/10 07:37:55;;;;;;;4.50;2.55;;;;;;;15.91;37.19;101089.91;5063824;28;20084;-83
2022/10/10 07:40:24;;;;;;;6.30;3.00;;;;;;;15.97;37.16;101080.09;5058029;28;20057;-82
2022/10/10 07:42:52;;;;;;;4.35;2.60;;;;;;;16.02;36.43;101089.59;5060762;28;20045;-82
2022/10/10 07:45:20;;;;;;;4.13;2.75;;;;;;;16.05;36.56;101086.53;5074944;28;20598;-83
2022/10/10 07:47:48;;;;;;;4.97;2.78;;;;;;;16.07;36.11;101092.75;5053202;28;20087;-83
2022/10/10 07:50:18;;;;;;;4.22;2.40;;;;;;;16.10;35.75;101089.66;5049581;28;20045;-83
2022/10/10 07:52:46;;;;;;;5.05;2.70;;;;;;;16.05;35.66;101094.81;5069372;28;20491;-83
2022/10/10 07:55:14;;;;;;;4.72;2.83;;;;;;;16.02;35.39;101092.38;5055118;28;20208;-83
2022/10/10 07:57:42;;;;;;;4.40;2.97;;;;;;;15.97;35.82;101089.25;5054756;28;20048;-82
2022/10/10 08:00:11;;;;;;;6.28;2.90;;;;;;;15.94;35.32;101083.19;5025302;28;20059;-83
2022/10/10 08:02:39;;;;;;;5.97;2.75;;;;;;;15.85;35.70;101085.03;5044764;28;20123;-83
2022/10/10 08:05:08;;;;;;;5.35;3.15;;;;;;;15.78;35.79;101092.22;5075234;22;20050;-82
2022/10/10 08:07:37;;;;;;;5.70;2.90;;;;;;;15.71;36.05;101089.25;5092589;28;20102;-83
2022/10/10 08:10:07;;;;;;;4.63;2.75;;;;;;;15.65;36.08;101091.81;5075778;28;20035;-83
2022/10/10 08:12:35;;;;;;;6.53;2.83;;;;;;;15.59;36.29;101095.22;5090311;28;20480;-83
2022/10/10 08:15:03;;;;;;;4.88;2.85;;;;;;;15.55;35.82;101091.03;5091485;28;20553;-81
2022/10/10 08:17:31;;;;;;;5.82;2.95;;;;;;;15.49;36.03;101092.56;5076028;28;20048;-83
2022/10/10 08:20:00;;;;;;;4.78;2.75;;;;;;;15.44;35.89;101089.41;5092177;28;20040;-83
2022/10/10 08:22:27;;;;;;;5.40;2.97;;;;;;;15.38;35.97;101093.66;5101870;28;20048;-83
2022/10/10 08:24:57;;;;;;;5.10;3.35;;;;;;;15.35;36.01;101084.84;5082070;28;20051;-83
2022/10/10 08:27:24;;;;;;;5.43;2.92;;;;;;;15.25;36.03;101084.06;5082641;28;20067;-82
2022/10/10 08:29:52;;;;;;;5.18;3.00;;;;;;;15.20;36.24;101092.78;5078451;28;20051;-83
2022/10/10 08:32:20;;;;;;;4.85;2.58;;;;;;;15.14;36.62;101099.81;5093904;28;20047;-81
2022/10/10 08:34:48;;;;;;;5.78;2.83;;;;;;;15.09;36.90;101093.06;5077436;28;20035;-83
2022/10/10 08:37:16;;;;;;;5.25;2.90;;;;;;;15.07;37.04;101108.88;5054432;28;20059;-83
2022/10/10 08:39:50;;;;;;;8.63;3.20;;;;;;;15.04;37.30;101096.25;5096255;28;20067;-83
2022/10/10 08:42:30;;;;;;;5.40;3.00;;;;;;;15.06;36.97;101098.88;5087709;28;20048;-82
2022/10/10 08:45:02;;;;;;;5.75;3.25;;;;;;;15.05;37.75;101103.50;5095361;28;20053;-82
2022/10/10 08:47:34;;;;;;;;;;;;;;;14.76;38.19;101109.22;5103335;28;20482;-81
2022/10/10 08:50:06;;;;;;;5.18;2.97;;;;;;;15.06;37.67;101098.88;5100654;28;19930;-82
2022/10/10 08:52:41;;;;;;;4.45;2.60;;;;;;;15.13;37.96;101109.09;5097127;28;20658;-82
2022/10/10 08:55:16;;;;;;;5.22;2.83;;;;;;;15.22;37.96;101110.03;5072856;28;20047;-82
2022/10/10 08:57:50;;;;;;;5.63;3.03;;;;;;;15.27;38.15;101113.19;5109988;28;20617;-81
2022/10/10 09:00:22;;;;;;;5.53;3.08;;;;;;;15.33;37.88;101106.19;5083150;28;20591;-82
2022/10/10 09:02:51;;;;;;;4.53;2.70;;;;;;;15.41;37.76;101117.31;5104679;28;20047;-81
2022/10/10 09:05:34;;;;;;;6.85;3.55;;;;;;;15.49;37.96;101112.72;5111349;28;20047;-81
2022/10/10 09:08:17;;;;;;;5.80;3.05;;;;;;;15.61;37.67;101106.94;5083902;28;20103;-81
2022/10/10 09:10:54;;;;;;;3.67;2.58;;;;;;;15.71;38.25;101105.81;5103454;28;20062;-82
2022/10/10 09:13:34;;;;;;;6.20;3.00;;;;;;;15.84;37.59;101114.50;5079655;28;20138;-80
2022/10/10 09:16:09;;;;;;;6.07;3.00;;;;;;;15.94;37.86;101103.38;5094059;28;20134;-81
2022/10/10 09:18:51;;;;;;;6.40;2.92;;;;;;;16.08;37.98;101115.72;5091671;28;20032;-81
2022/10/10 09:21:24;;;;;;;5.13;3.20;;;;;;;16.19;37.97;101110.78;5095427;28;20054;-81
2022/10/10 09:23:58;;;;;;;6.78;3.33;;;;;;;16.32;37.79;101113.13;5095320;28;20044;-80
2022/10/10 09:26:28;;;;;;;4.35;2.72;;;;;;;16.43;37.85;101111.94;5083179;28;20063;-81
2022/10/10 09:29:03;;;;;;;5.72;2.80;;;;;;;16.54;37.82;101123.56;5097077;28;20084;-80
2022/10/10 09:31:35;;;;;;;5.03;2.95;;;;;;;16.66;37.60;101128.78;5096060;28;20431;-81
2022/10/10 09:34:06;;;;;;;5.63;3.20;;;;;;;16.77;37.72;101120.16;5074549;28;20139;-79
2022/10/10 09:36:37;;;;;;;7.43;2.65;;;;;;;16.89;37.69;101132.66;5096482;28;20490;-79
2022/10/10 09:39:16;;;;;;;5.20;2.75;;;;;;;17.00;37.12;101119.38;5083711;28;20036;-83
2022/10/10 09:41:51;;;;;;;6.25;3.05;;;;;;;17.13;37.13;101120.81;5054387;28;20041;-80
2022/10/10 09:44:22;;;;;;;6.45;3.17;;;;;;;17.23;36.71;101133.44;5081401;28;20135;-80
2022/10/10 09:46:50;;;;;;;6.25;3.17;;;;;;;17.31;36.73;101119.63;5078789;28;20044;-79
2022/10/10 09:49:19;;;;;;;5.07;2.92;;;;;;;17.44;37.23;101126.53;5091314;28;20066;-79
2022/10/10 09:51:49;;;;;;;4.22;2.78;;;;;;;17.54;36.95;101121.69;5106037;28;20036;-83
2022/10/10 09:54:21;;;;;;;4.18;2.60;;;;;;;17.61;36.67;101122.72;5098284;28;20127;-83
2022/10/10 09:56:53;;;;;;;4.72;2.95;;;;;;;17.71;36.64;101104.03;5084300;28;20035;-83
2022/10/10 09:59:41;;;;;;;5.78;3.20;;;;;;;17.82;36.22;101119.41;5085813;28;20567;-82
2022/10/10 10:02:14;;;;;;;5.60;2.90;;;;;;;17.92;36.56;101117.34;5084868;28;20469;-84
2022/10/10 10:04:46;;;;;;;7.38;3.22;;;;;;;18.00;36.20;101109.00;5084861;28;20050;-80
2022/10/10 10:07:30;;;;;;;5.00;2.45;;;;;;;18.11;36.18;101112.28;5082444;28;20033;-82
2022/10/10 10:10:00;;;;;;;5.32;2.90;;;;;;;18.19;36.07;101111.38;5077564;28;20059;-83
2022/10/10 10:12:37;;;;;;;6.50;3.20;;;;;;;18.27;35.92;101119.66;5101058;28;20044;-82
2022/10/10 10:15:17;;;;;;;5.93;2.70;;;;;;;18.37;35.71;101108.38;5102446;28;20074;-83
2022/10/10 10:17:46;;;;;;;5.70;3.03;;;;;;;18.42;36.13;101119.78;5089766;28;20044;-84
2022/10/10 10:20:32;;;;;;;5.65;2.70;;;;;;;18.50;35.79;101119.78;5115301;28;20036;-82
2022/10/10 10:23:00;;;;;;;5.68;2.88;;;;;;;18.54;35.87;101118.38;5106771;28;20143;-84
2022/10/10 10:25:35;;;;;;;6.53;2.53;;;;;;;18.62;35.83;101121.13;5081133;28;20043;-81
2022/10/10 10:28:21;;;;;;;4.43;2.83;;;;;;;18.67;35.95;101117.78;5071414;28;20425;-78
2022/10/10 10:30:54;;;;;;;5.10;2.40;;;;;;;18.73;35.60;101120.69;5095160;28;20052;-83
2022/10/10 10:33:42;;;;;;;5.97;2.70;;;;;;;18.78;35.94;101121.03;5100500;28;20059;-86
2022/10/10 10:36:26;;;;;;;4.65;2.35;;;;;;;18.87;35.67;101128.25;5092624;28;20036;-86
2022/10/10 10:39:15;;;;;;;6.70;2.70;;;;;;;18.94;35.70;101125.63;5080498;28;20055;-85
2022/10/10 10:55:22;;;;;;;4.15;1.90;;;;;;;19.25;35.16;101134.78;5079561;22;20084;-73
2022/10/10 10:58:04;;;;;;;3.70;2.00;;;;;;;19.35;34.79;101136.47;5064213;28;20520;-71
2022/10/10 11:00:59;;;;;;;3.37;2.10;;;;;;;19.39;34.86;101126.69;5056603;28;20818;-71
2022/10/10 11:03:58;;;;;;;4.43;2.10;;;;;;;19.46;34.69;101119.38;5054690;28;20045;-71
2022/10/10 11:07:00;;;;;;;4.60;2.10;;;;;;;19.49;34.48;101122.63;5084111;28;20127;-71
2022/10/10 11:09:55;;;;;;;4.03;2.00;;;;;;;19.52;34.42;101129.75;5063613;28;20422;-71
2022/10/10 11:12:43;;;;;;;4.78;2.20;;;;;;;19.54;34.32;101128.47;5073545;28;20428;-72
2022/10/10 11:15:16;;;;;;;8.45;2.50;;;;;;;19.55;34.23;101121.00;5072363;28;20056;-71
2022/10/10 11:17:49;;;;;;;5.30;2.05;;;;;;;19.56;34.58;101123.59;5070854;28;20131;-72
2022/10/10 11:20:24;;;;;;;4.95;2.03;;;;;;;19.55;34.03;101124.66;5056082;28;20055;-71
2022/10/10 11:22:58;;;;;;;3.95;2.00;;;;;;;19.56;34.38;101118.06;5055757;28;20033;-71
2022/10/10 11:25:30;;;;;;;3.60;1.70;;;;;;;19.57;34.74;101124.47;5063595;28;20045;-72
2022/10/10 11:28:01;;;;;;;;;;;;;;;19.27;35.44;101117.97;5061511;28;20131;-69
2022/10/10 11:30:33;;;;;;;4.40;1.60;;;;;;;19.54;34.35;101114.59;5062577;28;19920;-70
2022/10/10 11:33:10;;;;;;;6.32;2.13;;;;;;;19.56;34.63;101117.19;5059262;28;20063;-70
2022/10/10 11:35:43;;;;;;;4.00;1.80;;;;;;;19.59;34.57;101120.47;5066017;28;20643;-70
2022/10/10 11:38:20;;;;;;;4.15;2.00;;;;;;;19.61;34.18;101125.84;5066977;28;20048;-71
2022/10/10 11:40:53;;;;;;;3.75;1.80;;;;;;;19.61;34.45;101123.94;5062264;28;20036;-70
2022/10/10 11:43:36;;;;;;;5.00;2.00;;;;;;;19.64;34.55;101131.00;5063267;28;20052;-71
2022/10/10 11:46:13;;;;;;;5.18;1.85;;;;;;;19.66;34.40;101109.47;5062526;28;20048;-71
2022/10/10 11:48:50;;;;;;;3.65;1.90;;;;;;;19.68;34.34;101120.41;5062930;28;20040;-71
2022/10/10 11:51:27;;;;;;;4.22;1.60;;;;;;;19.69;33.97;101122.13;5056030;28;20048;-71
2022/10/10 11:54:01;;;;;;;5.90;1.70;;;;;;;19.69;33.94;101113.78;5062063;28;20040;-69
2022/10/10 11:56:35;;;;;;;4.80;1.88;;;;;;;19.70;34.14;101109.97;5059100;28;20060;-70
2022/10/10 11:59:13;;;;;;;5.40;2.03;;;;;;;19.71;34.04;101106.97;5055720;28;20090;-70
2022/10/10 12:01:46;;;;;;;4.82;1.98;;;;;;;19.72;33.98;101114.25;5066396;28;20048;-70
2022/10/10 12:04:15;;;;;;;5.32;1.90;;;;;;;19.69;34.22;101109.09;5053100;28;20839;-71
2022/10/10 12:06:50;;;;;;;3.85;1.80;;;;;;;19.73;33.57;101112.34;5062099;28;20397;-71
2022/10/10 12:09:25;;;;;;;3.67;1.73;;;;;;;19.71;33.85;101112.53;5078307;28;20055;-72
2022/10/10 12:11:57;;;;;;;5.63;1.95;;;;;;;19.71;33.94;101123.63;5062586;28;20116;-72
2022/10/10 12:14:30;;;;;;;5.57;1.95;;;;;;;19.69;34.11;101127.69;5059285;28;20531;-71